Time;durP1;ratioP1;P1;durP2;ratioP2;P2;SDS_P1;SDS_P2;PMS_P1;PMS_P2;Temp;Humidity;BMP_temperature;BMP_pressure;BME280_temperature;BME280_humidity;BME280_pressure;Samples;Min_cycle;Max_cycle;Signal;HPM_P1;HPM_P2
2023/05/12 07:23:24;;;;;;;22.73;20.52;;;;;;;-145.79;100.00;77680.38;5322284;27;20388;-77
2023/05/12 07:25:55;;;;;;;18.75;17.05;;;;;;;-145.79;100.00;77671.91;5307180;28;20028;-78
2023/05/12 07:28:34;;;;;;;16.52;14.82;;;;;;;-145.79;100.00;77652.84;5300518;28;20028;-79
2023/05/12 07:31:09;;;;;;;16.05;13.10;;;;;;;-145.79;100.00;77638.00;5301228;28;20463;-80
2023/05/12 07:33:41;;;;;;;17.92;16.33;;;;;;;-145.79;100.00;77650.72;5301170;28;20417;-78
2023/05/12 07:36:12;;;;;;;14.93;13.48;;;;;;;-145.79;99.96;77631.63;5300240;28;20032;-82
2023/05/12 07:38:44;;;;;;;14.52;13.05;;;;;;;-145.79;98.93;77635.88;5301778;28;20020;-79
2023/05/12 07:41:16;;;;;;;15.45;13.95;;;;;;;-145.79;98.14;77635.88;5300933;28;20032;-80
2023/05/12 07:43:47;;;;;;;13.18;12.00;;;;;;;-145.79;96.91;77631.63;5299574;28;20032;-79
2023/05/12 07:46:18;;;;;;;13.10;11.75;;;;;;;-145.79;96.31;77601.97;5300513;28;20111;-81
2023/05/12 07:48:50;;;;;;;10.48;9.57;;;;;;;-145.79;94.60;77606.19;5299975;28;20027;-80
2023/05/12 07:51:21;;;;;;;11.27;10.30;;;;;;;-145.79;95.33;77595.59;5301403;28;20028;-79
2023/05/12 07:53:54;;;;;;;9.27;8.48;;;;;;;-145.79;91.48;77593.47;5300477;28;20046;-79
2023/05/12 07:56:25;;;;;;;8.63;7.68;;;;;;;-145.79;91.08;77595.59;5310695;28;20105;-79
2023/05/12 08:01:27;;;;;;;8.63;7.88;;;;;;;-145.79;89.27;77589.25;5262805;23;20476;-78
2023/05/12 08:04:02;;;;;;;8.63;7.93;;;;;;;-145.79;89.97;77576.53;5329941;22;20050;-78
2023/05/12 08:06:33;;;;;;;9.48;8.65;;;;;;;-145.79;88.43;77587.13;5237851;28;20026;-76
2023/05/12 08:09:05;;;;;;;9.10;8.20;;;;;;;-145.79;89.92;77580.75;5237906;28;20164;-75
2023/05/12 08:11:36;;;;;;;9.32;8.40;;;;;;;-145.79;89.16;77570.16;5236300;28;20030;-75
2023/05/12 08:14:07;;;;;;;9.60;8.82;;;;;;;-145.79;89.87;77572.28;5237453;28;20025;-76
2023/05/12 08:16:39;;;;;;;8.82;8.10;;;;;;;-145.79;88.94;77585.00;5236532;28;20495;-78
2023/05/12 08:19:13;;;;;;;9.45;8.68;;;;;;;-145.79;89.27;77572.28;5236755;28;20531;-75
2023/05/12 08:21:45;;;;;;;8.48;7.78;;;;;;;-145.79;89.91;77559.56;5236726;28;20038;-74
2023/05/12 08:24:16;;;;;;;9.82;9.02;;;;;;;-145.79;89.86;77546.84;5236018;28;20554;-74
2023/05/12 08:26:48;;;;;;;9.23;8.43;;;;;;;-145.79;89.88;77542.59;5236845;28;20104;-74
2023/05/12 08:29:19;;;;;;;8.82;8.15;;;;;;;-145.79;88.50;77538.38;5236623;28;20435;-71
2023/05/12 08:31:50;;;;;;;9.45;8.63;;;;;;;-145.79;88.10;77529.88;5235833;28;20072;-69
2023/05/12 08:34:22;;;;;;;8.05;7.45;;;;;;;-145.79;86.93;77529.88;5225106;28;20029;-71
2023/05/12 08:36:54;;;;;;;9.60;8.70;;;;;;;-145.79;88.36;77521.41;5222603;28;20034;-71
2023/05/12 08:39:29;;;;;;;8.80;8.10;;;;;;;-145.79;88.40;77517.16;5222531;28;20022;-72
2023/05/12 08:42:02;;;;;;;;;;;;;;;-145.79;87.30;77506.56;5223458;28;20026;-72
2023/05/12 08:44:34;;;;;;;7.88;6.70;;;;;;;-145.79;84.08;77508.69;5222396;28;19987;-72
2023/05/12 08:47:07;;;;;;;7.40;6.68;;;;;;;-145.79;83.31;77500.22;5221834;28;20018;-70
2023/05/12 08:49:41;;;;;;;6.90;6.25;;;;;;;-145.79;82.58;77502.34;5223052;28;20373;-72
2023/05/12 08:52:13;;;;;;;6.15;5.63;;;;;;;-145.79;82.72;77498.09;5222127;28;20030;-72
2023/05/12 08:54:45;;;;;;;6.13;5.63;;;;;;;-145.79;82.93;77500.22;5222841;28;20022;-72
2023/05/12 08:57:16;;;;;;;6.35;5.85;;;;;;;-145.79;82.53;77491.75;5222885;28;20044;-72
2023/05/12 08:59:48;;;;;;;6.47;5.63;;;;;;;-145.79;80.98;77483.25;5222416;28;20022;-72
2023/05/12 09:02:21;;;;;;;9.80;5.47;;;;;;;-145.79;79.94;77487.50;5222486;28;20030;-72
2023/05/12 09:04:53;;;;;;;5.97;5.47;;;;;;;-145.79;80.22;77476.91;5221882;28;20034;-72
2023/05/12 09:07:27;;;;;;;5.47;4.97;;;;;;;-145.79;78.52;77483.25;5221842;28;20350;-73
2023/05/12 09:10:00;;;;;;;5.18;4.60;;;;;;;-145.79;78.20;77481.13;5222441;28;20473;-72
2023/05/12 09:12:36;;;;;;;4.65;4.10;;;;;;;-145.79;77.76;77476.91;5222529;28;20049;-73
2023/05/12 09:15:13;;;;;;;5.32;4.13;;;;;;;-145.79;77.21;77470.53;5222036;28;20472;-73
2023/05/12 09:17:44;;;;;;;4.35;3.67;;;;;;;-145.79;75.98;77466.31;5222210;28;20412;-74
2023/05/12 09:20:16;;;;;;;5.47;3.78;;;;;;;-145.79;76.00;77447.22;5221845;28;20026;-71
2023/05/12 09:22:47;;;;;;;4.30;3.78;;;;;;;-145.79;75.82;77430.25;5222444;28;20026;-72
2023/05/12 09:25:20;;;;;;;3.47;2.88;;;;;;;-145.79;74.39;77428.16;5222257;28;20409;-72
2023/05/12 09:27:54;;;;;;;3.88;3.25;;;;;;;-145.79;72.67;77430.25;5221732;28;20033;-72
2023/05/12 09:30:30;;;;;;;3.72;3.42;;;;;;;-145.79;72.18;77440.88;5222188;28;20018;-75
2023/05/12 09:33:08;;;;;;;3.70;3.40;;;;;;;-145.79;73.93;77423.91;5222471;28;20516;-71
2023/05/12 09:35:43;;;;;;;3.53;3.22;;;;;;;-145.79;73.70;77398.47;5220327;28;20026;-72
2023/05/12 09:38:14;;;;;;;4.53;3.60;;;;;;;-145.79;73.40;77385.75;5221250;28;20021;-71
2023/05/12 09:40:46;;;;;;;4.43;4.00;;;;;;;-145.79;74.10;77377.28;5221410;28;20033;-70
2023/05/12 09:43:18;;;;;;;4.32;3.70;;;;;;;-145.79;72.72;77375.16;5220528;28;20034;-72
2023/05/12 09:45:50;;;;;;;4.60;4.20;;;;;;;-145.79;73.38;77349.72;5220345;28;20058;-72
2023/05/12 09:48:21;;;;;;;6.57;3.88;;;;;;;-145.79;71.38;77351.84;5220543;28;20037;-71
2023/05/12 09:50:53;;;;;;;3.30;2.95;;;;;;;-145.79;70.41;77347.59;5221971;28;20032;-71
2023/05/12 09:53:25;;;;;;;4.70;3.58;;;;;;;-145.79;69.98;77360.31;5221237;28;20040;-71
2023/05/12 09:55:56;;;;;;;4.95;2.92;;;;;;;-145.79;70.00;77362.44;5220979;28;20458;-72
2023/05/12 09:58:34;;;;;;;3.92;2.72;;;;;;;-145.79;69.26;77368.78;5221214;28;20080;-70
2023/05/12 10:01:07;;;;;;;4.05;3.13;;;;;;;-145.79;69.23;77373.03;5219092;28;20022;-71
2023/05/12 10:03:44;;;;;;;2.97;2.72;;;;;;;-145.79;68.62;77377.28;5220588;28;20073;-70
2023/05/12 10:06:40;;;;;;;4.82;3.15;;;;;;;-145.79;68.72;77358.19;5221287;28;20366;-72
2023/05/12 10:09:25;;;;;;;4.32;3.92;;;;;;;-145.79;68.47;77368.78;5221179;28;20026;-70
2023/05/12 10:12:01;;;;;;;3.88;3.10;;;;;;;-145.79;68.16;77358.19;5220829;28;20030;-70
2023/05/12 10:14:34;;;;;;;5.47;3.55;;;;;;;-145.79;68.80;77341.25;5210158;28;20350;-69
2023/05/12 10:17:08;;;;;;;4.13;3.15;;;;;;;-145.79;68.12;77322.16;5220010;28;20056;-69
2023/05/12 10:19:41;;;;;;;3.95;3.22;;;;;;;-145.79;68.44;77307.31;5221493;28;20034;-71
2023/05/12 10:22:14;;;;;;;3.47;3.08;;;;;;;-145.79;68.20;77313.69;5220884;28;20091;-70
2023/05/12 10:24:47;;;;;;;6.95;3.17;;;;;;;-145.79;66.42;77330.66;5220481;28;20017;-71
2023/05/12 10:27:21;;;;;;;3.83;3.42;;;;;;;-145.79;66.63;77339.13;5220530;28;20049;-71
2023/05/12 10:29:53;;;;;;;5.50;3.60;;;;;;;-145.79;67.15;77313.69;5221189;28;20389;-71
2023/05/12 10:32:25;;;;;;;3.85;3.55;;;;;;;-145.79;65.97;77300.97;5220325;28;20101;-68
2023/05/12 10:35:11;;;;;;;4.15;3.20;;;;;;;-145.79;65.83;77292.50;5221144;28;20168;-72
2023/05/12 10:37:43;;;;;;;5.97;3.78;;;;;;;-145.79;66.55;77292.50;5219465;28;20025;-72
2023/05/12 10:40:23;;;;;;;4.40;3.38;;;;;;;-145.79;65.49;77300.97;5219931;28;20021;-71
2023/05/12 10:42:58;;;;;;;3.47;3.03;;;;;;;-145.79;63.30;77284.00;5219332;28;20156;-71
2023/05/12 10:45:36;;;;;;;3.47;2.80;;;;;;;-145.79;63.43;77292.50;5219382;28;20033;-71
2023/05/12 10:48:08;;;;;;;3.30;3.00;;;;;;;-145.79;63.57;77271.28;5220128;28;20034;-75
2023/05/12 10:50:52;;;;;;;3.10;2.78;;;;;;;-145.79;64.28;77262.81;5218456;28;20500;-74
2023/05/12 10:53:27;;;;;;;2.95;2.33;;;;;;;-145.79;61.05;77264.94;5219329;28;20421;-75
2023/05/12 10:56:04;;;;;;;5.10;2.70;;;;;;;-145.79;61.89;77258.56;5220369;28;20056;-75
2023/05/12 10:58:35;;;;;;;7.90;3.05;;;;;;;-145.79;61.30;77247.97;5220360;28;20050;-74
2023/05/12 11:01:09;;;;;;;3.33;2.20;;;;;;;-145.79;61.28;77245.84;5219820;28;20064;-77
2023/05/12 11:03:41;;;;;;;7.63;3.00;;;;;;;-145.79;61.07;77222.53;5213409;28;20096;-74
2023/05/12 11:06:17;;;;;;;3.95;3.08;;;;;;;-145.79;58.73;77228.91;5218193;28;20034;-74
2023/05/12 11:08:49;;;;;;;4.00;2.90;;;;;;;-145.79;60.72;77233.16;5220644;28;20114;-74
2023/05/12 11:11:24;;;;;;;6.63;2.78;;;;;;;-145.79;59.63;77224.66;5219954;28;20057;-70
2023/05/12 11:13:55;;;;;;;3.30;2.60;;;;;;;-145.79;59.16;77235.25;5199224;28;20038;-70
2023/05/12 11:16:27;;;;;;;5.97;5.40;;;;;;;-145.79;60.09;77239.50;5208244;28;20175;-70
2023/05/12 11:19:03;;;;;;;3.67;3.17;;;;;;;-145.79;60.30;77256.47;5220392;28;20464;-70
2023/05/12 11:21:35;;;;;;;5.88;3.25;;;;;;;-145.79;61.37;77250.09;5218823;28;20033;-70
2023/05/12 11:24:09;;;;;;;4.55;3.05;;;;;;;-145.79;61.23;77245.84;5219396;28;20045;-70
2023/05/12 11:26:41;;;;;;;5.82;2.65;;;;;;;-145.79;58.83;77250.09;5219811;28;20465;-70
2023/05/12 11:29:12;;;;;;;2.95;2.75;;;;;;;-145.79;59.90;77258.56;5219939;28;20022;-70
2023/05/12 11:32:02;;;;;;;3.38;2.78;;;;;;;-145.79;62.61;77262.81;5219715;28;20029;-71
2023/05/12 11:34:34;;;;;;;3.88;3.45;;;;;;;-145.79;63.70;77267.06;5219258;28;20037;-70
2023/05/12 11:37:08;;;;;;;4.50;3.13;;;;;;;-145.79;64.74;77258.56;5219661;28;20102;-70
2023/05/12 11:39:46;;;;;;;3.88;3.35;;;;;;;-145.79;64.20;77256.47;5220535;28;20113;-71
2023/05/12 11:42:17;;;;;;;6.35;3.72;;;;;;;-145.79;62.14;77245.84;5219190;28;20449;-71
2023/05/12 11:44:54;;;;;;;5.55;3.22;;;;;;;-145.79;62.73;77243.75;5220428;28;20053;-71
2023/05/12 11:47:25;;;;;;;6.57;3.72;;;;;;;-145.79;62.00;77245.84;5219783;28;20029;-70
2023/05/12 11:49:57;;;;;;;3.63;3.15;;;;;;;-145.79;62.58;77228.91;5219438;28;20026;-71
2023/05/12 11:52:28;;;;;;;6.53;4.05;;;;;;;-145.79;60.77;77226.78;5219737;28;20145;-71
2023/05/12 11:55:01;;;;;;;6.85;3.55;;;;;;;-145.79;60.33;77218.31;5219222;28;20397;-70
2023/05/12 11:57:36;;;;;;;4.40;2.95;;;;;;;-145.79;60.68;77199.22;5220200;28;20014;-70
2023/05/12 12:00:08;;;;;;;5.43;3.33;;;;;;;-145.79;59.91;77178.03;5217965;28;20030;-70
2023/05/12 12:02:42;;;;;;;4.28;3.65;;;;;;;-145.79;57.99;77199.22;5218861;28;20038;-71
2023/05/12 12:05:17;;;;;;;3.30;3.00;;;;;;;-145.79;59.14;77203.47;5219071;28;20413;-71
2023/05/12 12:07:48;;;;;;;4.65;3.20;;;;;;;-145.79;58.33;77192.88;5218724;28;20026;-72
2023/05/12 12:10:19;;;;;;;4.82;3.50;;;;;;;-145.79;57.55;77178.03;5223203;28;20373;-71
2023/05/12 12:12:51;;;;;;;5.78;3.53;;;;;;;-145.79;57.95;77173.78;5223320;28;20089;-71
2023/05/12 12:15:22;;;;;;;3.00;2.72;;;;;;;-145.79;58.43;77156.84;5222595;28;20084;-72
2023/05/12 12:17:54;;;;;;;5.13;3.55;;;;;;;-145.79;57.55;77144.13;5222079;28;20030;-72
2023/05/12 12:20:25;;;;;;;4.18;3.22;;;;;;;-145.79;56.71;77142.00;5223426;28;20038;-72
2023/05/12 12:22:56;;;;;;;4.90;3.10;;;;;;;-145.79;56.38;77161.06;5223517;28;20038;-70
2023/05/12 12:25:48;;;;;;;4.10;3.58;;;;;;;-145.79;56.67;77165.31;5222093;28;20034;-72
2023/05/12 12:28:19;;;;;;;3.53;3.22;;;;;;;-145.79;55.44;77178.03;5222970;28;20100;-72
2023/05/12 12:30:51;;;;;;;3.95;2.90;;;;;;;-145.79;55.71;77175.91;5221751;28;20088;-73
2023/05/12 12:33:22;;;;;;;3.53;3.20;;;;;;;-145.79;57.91;77178.03;5222536;28;20025;-73
2023/05/12 12:35:53;;;;;;;4.80;2.88;;;;;;;-145.79;54.87;77169.56;5223061;28;20068;-75
2023/05/12 12:38:25;;;;;;;3.65;3.35;;;;;;;-145.79;55.20;77154.72;5222299;28;20592;-72
2023/05/12 12:40:56;;;;;;;3.28;2.97;;;;;;;-145.79;54.80;77148.34;5222925;28;20026;-73
2023/05/12 12:43:27;;;;;;;3.20;2.90;;;;;;;-145.79;55.62;77122.94;5222423;28;20521;-73
2023/05/12 12:45:59;;;;;;;4.30;3.40;;;;;;;-145.79;54.10;77095.38;5222461;28;20038;-73
2023/05/12 12:48:31;;;;;;;4.95;3.05;;;;;;;-145.79;52.63;77084.78;5221618;28;20041;-73
2023/05/12 12:51:06;;;;;;;3.83;2.92;;;;;;;-145.79;52.48;77072.06;5223235;28;20030;-74
2023/05/12 12:53:37;;;;;;;3.35;3.05;;;;;;;-145.79;52.78;77078.41;5222428;28;20022;-73
2023/05/12 12:56:08;;;;;;;4.85;2.90;;;;;;;-145.79;53.11;77080.53;5223061;28;20065;-76
2023/05/12 12:58:40;;;;;;;3.72;3.22;;;;;;;-145.79;51.98;77086.91;5221927;28;20096;-71
2023/05/12 13:01:11;;;;;;;5.55;3.20;;;;;;;-145.79;53.07;77076.31;5221960;28;20026;-79
2023/05/12 13:03:42;;;;;;;5.22;3.22;;;;;;;-145.79;53.19;77061.47;5222123;28;20096;-71
2023/05/12 13:06:23;;;;;;;4.80;2.67;;;;;;;-145.79;51.69;77072.06;5221100;28;20030;-72
2023/05/12 13:08:57;;;;;;;6.32;3.38;;;;;;;-145.79;51.05;77069.94;5222822;28;20116;-71
2023/05/12 13:11:28;;;;;;;5.47;3.38;;;;;;;-145.79;51.77;77074.19;5222372;28;20030;-72
2023/05/12 13:14:01;;;;;;;3.08;2.50;;;;;;;-145.79;50.38;77091.13;5222064;28;20033;-72
2023/05/12 13:16:32;;;;;;;2.95;2.75;;;;;;;-145.79;51.56;77089.00;5221846;28;20026;-71
2023/05/12 13:19:04;;;;;;;3.53;3.13;;;;;;;-145.79;52.47;77091.13;5221415;28;20034;-71
2023/05/12 13:21:36;;;;;;;4.07;3.08;;;;;;;-145.79;52.26;77118.69;5220800;28;20456;-71
2023/05/12 13:24:07;;;;;;;3.97;3.17;;;;;;;-145.79;52.18;77093.25;5222348;28;20461;-71
2023/05/12 13:26:39;;;;;;;5.93;3.92;;;;;;;-145.79;51.85;77059.34;5221660;28;20022;-71
2023/05/12 13:29:13;;;;;;;4.38;3.85;;;;;;;-145.79;50.76;77033.91;5221781;28;20029;-75
2023/05/12 13:31:45;;;;;;;3.78;3.03;;;;;;;-145.79;50.65;77012.72;5222109;28;20469;-71
2023/05/12 13:34:16;;;;;;;5.55;3.58;;;;;;;-145.79;50.83;76995.75;5220860;28;20386;-73
2023/05/12 13:36:48;;;;;;;6.57;4.70;;;;;;;-145.79;50.27;77000.00;5221499;28;20029;-71
2023/05/12 13:39:19;;;;;;;5.75;5.15;;;;;;;-145.79;51.27;76993.63;5222832;28;20465;-73
2023/05/12 13:41:53;;;;;;;3.97;3.58;;;;;;;-145.79;50.11;77019.06;5221385;28;20061;-72
2023/05/12 13:44:24;;;;;;;5.00;3.35;;;;;;;-145.79;50.11;77025.44;5222118;28;20025;-72
2023/05/12 13:46:56;;;;;;;16.15;14.55;;;;;;;-145.79;50.46;77050.88;5221857;28;20022;-70
2023/05/12 13:49:27;;;;;;;11.98;8.65;;;;;;;-145.79;50.22;77050.88;5221226;28;20026;-70
2023/05/12 13:51:59;;;;;;;3.70;3.10;;;;;;;-145.79;51.99;77057.22;5221924;28;20385;-70
2023/05/12 13:54:30;;;;;;;4.63;3.10;;;;;;;-145.79;50.75;77050.88;5221302;28;20025;-73
2023/05/12 13:57:04;;;;;;;3.80;3.30;;;;;;;-145.79;51.34;77014.84;5221676;28;20026;-72
2023/05/12 13:59:36;;;;;;;4.68;3.20;;;;;;;-145.79;51.42;76968.22;5220893;28;20049;-71
2023/05/12 14:02:10;;;;;;;4.40;4.00;;;;;;;-145.79;50.07;76961.84;5220467;28;20053;-71
2023/05/12 14:04:41;;;;;;;3.95;3.45;;;;;;;-145.79;50.58;76934.28;5220697;28;20053;-71
2023/05/12 14:07:12;;;;;;;4.82;4.22;;;;;;;-145.79;50.82;76932.19;5221622;28;20030;-73
2023/05/12 14:09:44;;;;;;;4.07;3.63;;;;;;;-145.79;49.24;76932.19;5219634;28;20033;-71
2023/05/12 14:12:18;;;;;;;4.07;3.47;;;;;;;-145.79;50.37;76906.75;5221174;28;20045;-71
2023/05/12 14:14:50;;;;;;;3.85;3.40;;;;;;;-145.79;48.90;76927.94;5221335;28;20030;-72
2023/05/12 14:17:21;;;;;;;3.67;3.38;;;;;;;-145.79;49.83;76944.91;5220507;28;20109;-75
2023/05/12 14:19:52;;;;;;;3.95;3.40;;;;;;;-145.79;50.36;76957.59;5220488;28;20500;-73
2023/05/12 14:22:27;;;;;;;3.85;3.55;;;;;;;-145.79;50.92;76949.13;5220663;28;20037;-72
2023/05/12 14:24:59;;;;;;;5.10;3.47;;;;;;;-145.79;50.82;76934.28;5220589;28;20474;-72
2023/05/12 14:27:30;;;;;;;3.95;3.53;;;;;;;-145.79;50.70;76898.25;5219775;28;20022;-72
2023/05/12 14:30:02;;;;;;;6.05;4.07;;;;;;;-145.79;48.74;76894.03;5220160;28;20029;-73
2023/05/12 14:32:33;;;;;;;3.97;3.63;;;;;;;-145.79;47.95;76910.97;5220764;28;20057;-71
2023/05/12 14:35:05;;;;;;;5.90;5.30;;;;;;;-145.79;48.70;76923.69;5220559;28;20181;-71
2023/05/12 14:37:37;;;;;;;6.43;3.38;;;;;;;-145.79;47.03;76944.91;5219832;28;20026;-74
2023/05/12 14:40:09;;;;;;;5.00;3.03;;;;;;;-145.79;47.71;76955.50;5220141;28;20022;-73
2023/05/12 14:42:41;;;;;;;5.55;3.50;;;;;;;-145.79;48.38;76966.09;5220669;28;20030;-73
2023/05/12 14:45:12;;;;;;;3.65;2.85;;;;;;;-145.79;48.11;76989.41;5220129;28;20026;-73
2023/05/12 14:47:44;;;;;;;4.00;3.65;;;;;;;-145.79;49.04;76993.63;5220338;28;20054;-74
2023/05/12 14:50:17;;;;;;;3.30;3.00;;;;;;;-145.79;50.23;77000.00;5220031;28;20034;-70
2023/05/12 14:52:48;;;;;;;3.97;2.70;;;;;;;-145.79;50.56;77008.47;5219255;28;20496;-71
2023/05/12 14:55:19;;;;;;;3.83;3.30;;;;;;;-145.79;49.18;77016.94;5220718;28;20076;-72
2023/05/12 14:57:51;;;;;;;3.42;3.13;;;;;;;-145.79;49.66;77019.06;5219643;28;20030;-74
2023/05/12 15:00:22;;;;;;;3.53;2.72;;;;;;;-145.79;48.93;77029.66;5220489;28;20397;-72
2023/05/12 15:02:53;;;;;;;2.60;2.40;;;;;;;-145.79;48.07;77029.66;5220756;28;20050;-70
2023/05/12 15:05:25;;;;;;;5.45;2.90;;;;;;;-145.79;47.99;77029.66;5219522;28;20076;-73
2023/05/12 15:07:57;;;;;;;2.75;2.53;;;;;;;-145.79;47.83;77031.78;5220766;28;20018;-72
2023/05/12 15:10:28;;;;;;;8.00;3.72;;;;;;;-145.79;48.66;77025.44;5220558;28;20033;-73
2023/05/12 15:12:59;;;;;;;6.78;5.38;;;;;;;-145.79;48.24;77023.31;5219829;28;20049;-73
2023/05/12 15:15:32;;;;;;;10.38;8.70;;;;;;;-145.79;48.30;77021.19;5218366;28;20381;-72
2023/05/12 15:18:04;;;;;;;4.82;3.78;;;;;;;-145.79;48.52;77012.72;5218159;28;20057;-71
2023/05/12 15:20:37;;;;;;;4.68;3.50;;;;;;;-145.79;47.91;77016.94;5219934;28;20369;-72
2023/05/12 15:23:08;;;;;;;7.53;3.63;;;;;;;-145.79;49.11;77014.84;5220206;28;20045;-72
2023/05/12 15:25:40;;;;;;;3.58;2.80;;;;;;;-145.79;49.13;77014.84;5219645;28;20353;-73
2023/05/12 15:28:11;;;;;;;3.50;3.13;;;;;;;-145.79;48.28;77002.13;5219536;28;20018;-74
2023/05/12 15:30:43;;;;;;;3.10;2.80;;;;;;;-145.79;48.56;77014.84;5220492;28;20129;-74
2023/05/12 15:33:15;;;;;;;3.63;3.33;;;;;;;-145.79;48.52;77012.72;5219526;28;20022;-73
2023/05/12 15:35:46;;;;;;;3.90;2.83;;;;;;;-145.79;47.37;77021.19;5220476;28;20072;-76
2023/05/12 15:38:17;;;;;;;4.05;3.20;;;;;;;-145.79;47.38;77031.78;5219472;28;20145;-76
2023/05/12 15:40:49;;;;;;;10.45;9.23;;;;;;;-145.79;48.24;77033.91;5219571;28;20120;-74
2023/05/12 15:43:20;;;;;;;3.60;3.10;;;;;;;-145.79;48.14;77038.16;5221090;28;20428;-75
2023/05/12 15:45:52;;;;;;;3.90;3.47;;;;;;;-145.79;48.02;77050.88;5223705;28;20747;-76
2023/05/12 15:48:23;;;;;;;4.60;4.18;;;;;;;-145.79;48.62;77046.63;5223091;28;20101;-76
2023/05/12 15:50:54;;;;;;;3.97;3.20;;;;;;;-145.79;48.49;77048.75;5224376;28;20050;-78
2023/05/12 15:53:26;;;;;;;4.90;3.83;;;;;;;-145.79;48.74;77042.38;5224158;28;20033;-75
2023/05/12 15:56:02;;;;;;;4.20;3.80;;;;;;;-145.79;49.79;77033.91;5223525;28;20029;-73
2023/05/12 15:58:33;;;;;;;4.75;4.28;;;;;;;-145.79;49.30;77008.47;5224428;28;20029;-74
2023/05/12 16:01:05;;;;;;;4.45;3.95;;;;;;;-145.79;48.71;77029.66;5223897;28;20030;-76
2023/05/12 16:03:41;;;;;;;4.43;3.88;;;;;;;-145.79;49.71;77023.31;5224206;28;20058;-70
2023/05/12 16:06:13;;;;;;;59.38;53.53;;;;;;;-145.79;50.03;77004.25;5223752;28;20026;-74
2023/05/12 16:08:47;;;;;;;6.30;5.78;;;;;;;-145.79;50.17;77006.34;5223085;28;20076;-75
2023/05/12 16:11:18;;;;;;;5.60;4.55;;;;;;;-145.79;51.05;76997.88;5224033;28;20026;-75
2023/05/12 16:13:51;;;;;;;5.05;4.60;;;;;;;-145.79;50.53;76995.75;5224110;28;20041;-72
2023/05/12 16:16:23;;;;;;;4.38;2.85;;;;;;;-145.79;48.87;77031.78;5222686;28;20030;-71
2023/05/12 16:18:54;;;;;;;4.55;2.30;;;;;;;-145.79;48.93;77089.00;5223653;28;20029;-72
2023/05/12 16:21:28;;;;;;;2.92;2.20;;;;;;;-145.79;49.48;77129.28;5223561;28;20022;-72
2023/05/12 16:24:00;;;;;;;3.28;2.70;;;;;;;-145.79;51.63;77150.47;5222636;28;20053;-73
2023/05/12 16:26:31;;;;;;;2.75;2.10;;;;;;;-145.79;50.06;77184.41;5223270;28;20049;-74
2023/05/12 16:29:03;;;;;;;8.52;4.35;;;;;;;-145.79;50.66;77220.44;5223242;28;20030;-74
2023/05/12 16:31:37;;;;;;;2.95;2.65;;;;;;;-145.79;51.82;77224.66;5222512;28;20025;-75
2023/05/12 16:34:08;;;;;;;3.90;2.50;;;;;;;-145.79;52.55;77250.09;5222102;28;20382;-73
2023/05/12 16:36:39;;;;;;;2.90;2.70;;;;;;;-145.79;53.98;77296.72;5222762;28;20026;-74
2023/05/12 16:39:11;;;;;;;3.95;2.50;;;;;;;-145.79;54.60;77300.97;5223136;28;20102;-74
2023/05/12 16:41:43;;;;;;;3.55;3.00;;;;;;;-145.79;54.95;77328.53;5223208;28;20022;-73
2023/05/12 16:44:14;;;;;;;3.40;2.97;;;;;;;-145.79;55.84;77339.13;5222224;28;20115;-73
2023/05/12 16:46:45;;;;;;;2.83;2.58;;;;;;;-145.79;56.64;77356.06;5223462;28;20104;-73
2023/05/12 16:49:17;;;;;;;7.60;3.30;;;;;;;-145.79;57.83;77351.84;5222759;28;20025;-73
2023/05/12 16:51:49;;;;;;;5.38;2.53;;;;;;;-145.79;59.94;77362.44;5222344;28;20037;-72
2023/05/12 16:54:20;;;;;;;6.35;3.00;;;;;;;-145.79;60.67;77358.19;5222381;28;20041;-73
